Time;durP1;ratioP1;P1;durP2;ratioP2;P2;SDS_P1;SDS_P2;PMS_P1;PMS_P2;Temp;Humidity;BMP_temperature;BMP_pressure;BME280_temperature;BME280_humidity;BME280_pressure;Samples;Min_cycle;Max_cycle;Signal;HPM_P1;HPM_P2
2021/09/30 00:02:08;;;;;;;30.92;27.75;;;23.20;61.90;;;;;;4752040;55;21098;-28
2021/09/30 00:07:09;;;;;;;32.03;28.58;;;23.20;61.90;;;;;;4738259;59;21630;-31
2021/09/30 00:12:15;;;;;;;30.48;27.20;;;23.20;61.90;;;;;;4739001;59;21484;-33
2021/09/30 00:17:29;;;;;;;30.55;27.45;;;23.20;61.90;;;;;;4771823;55;20994;-33
2021/09/30 00:42:03;;;;;;;29.90;26.70;;;23.20;61.80;;;;;;4744634;55;21496;-31
2021/09/30 02:27:49;;;;;;;26.02;23.35;;;23.10;61.60;;;;;;4745944;55;21105;-30
2021/09/30 02:59:46;;;;;;;25.12;22.52;;;23.10;61.90;;;;;;4738305;55;21571;-29
2021/09/30 03:04:48;;;;;;;25.37;22.75;;;23.10;61.50;;;;;;4741945;55;21085;-32
2021/09/30 03:09:51;;;;;;;25.15;22.55;;;23.10;61.50;;;;;;4738244;59;21010;-31
2021/09/30 03:15:06;;;;;;;24.25;21.83;;;23.10;61.50;;;;;;4787147;55;20998;-25
2021/09/30 03:32:02;;;;;;;23.27;20.88;;;23.10;61.50;;;;;;4738428;55;21161;-31
2021/09/30 03:37:04;;;;;;;24.20;21.70;;;23.10;61.40;;;;;;4764278;55;21006;-25
2021/09/30 03:42:05;;;;;;;23.80;21.40;;;23.10;61.50;;;;;;4786652;55;21362;-24
2021/09/30 03:47:06;;;;;;;23.42;21.02;;;23.10;61.40;;;;;;4738558;59;21010;-23
2021/09/30 03:52:16;;;;;;;24.33;21.92;;;23.10;61.40;;;;;;4738470;55;21005;-26
2021/09/30 03:57:35;;;;;;;;;;;;;;;;;;;;;
2021/09/30 04:02:36;;;;;;;22.90;20.58;;;23.10;62.00;;;;;;4767928;55;21050;-31
2021/09/30 04:07:37;;;;;;;23.15;20.85;;;23.10;61.40;;;;;;4791331;55;21062;-30
2021/09/30 04:12:38;;;;;;;22.67;20.40;;;23.10;61.30;;;;;;4769750;55;21485;-26
2021/09/30 04:17:39;;;;;;;22.90;20.60;;;23.10;61.30;;;;;;4750172;55;21599;-27
2021/09/30 04:22:40;;;;;;;22.98;20.73;;;23.10;61.30;;;;;;4745299;55;21517;-29
2021/09/30 04:27:41;;;;;;;21.77;19.48;;;23.10;61.30;;;;;;4744866;55;21489;-29
2021/09/30 04:32:42;;;;;;;22.42;20.12;;;23.10;61.40;;;;;;4743946;55;21050;-29
2021/09/30 04:37:43;;;;;;;22.00;19.73;;;23.10;61.30;;;;;;4745977;55;21021;-28
2021/09/30 04:42:45;;;;;;;22.83;20.50;;;23.10;61.30;;;;;;4760606;55;20998;-26
2021/09/30 04:47:46;;;;;;;22.27;19.90;;;23.10;61.40;;;;;;4752828;55;21010;-28
2021/09/30 04:52:47;;;;;;;21.98;19.73;;;23.10;61.40;;;;;;4740936;55;21025;-32
2021/09/30 04:57:47;;;;;;;21.15;18.90;;;23.10;61.30;;;;;;4753944;55;21034;-26
2021/09/30 05:02:48;;;;;;;20.60;17.62;;;23.10;61.30;;;;;;4781464;55;21564;-33
2021/09/30 05:07:49;;;;;;;19.85;17.85;;;23.10;61.20;;;;;;4737862;59;21105;-32
2021/09/30 05:12:54;;;;;;;21.35;19.15;;;23.10;61.20;;;;;;4796386;55;21091;-26
2021/09/30 05:17:55;;;;;;;20.73;18.52;;;23.10;61.10;;;;;;4753737;55;21559;-30
2021/09/30 05:22:56;;;;;;;20.48;18.37;;;23.10;61.10;;;;;;4740131;55;20990;-30
2021/09/30 05:27:57;;;;;;;20.33;18.25;;;23.10;61.00;;;;;;4738147;55;21002;-22
2021/09/30 05:32:58;;;;;;;21.25;18.90;;;23.10;61.00;;;;;;4756240;55;21476;-23
2021/09/30 05:37:58;;;;;;;20.25;18.00;;;23.10;61.00;;;;;;4738235;59;20986;-29
2021/09/30 05:43:01;;;;;;;19.62;17.60;;;23.00;60.80;;;;;;4742975;55;21010;-28
2021/09/30 05:48:05;;;;;;;19.98;17.98;;;23.00;60.80;;;;;;4737382;59;21070;-32
2021/09/30 05:53:06;;;;;;;18.75;16.87;;;23.00;60.70;;;;;;4741963;55;21555;-24
2021/09/30 05:58:10;;;;;;;20.23;18.12;;;23.00;60.80;;;;;;4761348;55;20996;-24
2021/09/30 06:14:08;;;;;;;20.83;17.67;;;23.00;60.60;;;;;;4738004;55;21034;-31
2021/09/30 06:19:09;;;;;;;20.25;17.55;;;23.00;60.60;;;;;;4738538;55;21492;-28
2021/09/30 06:24:10;;;;;;;19.10;17.10;;;23.00;60.60;;;;;;4738608;55;21002;-29
2021/09/30 06:29:12;;;;;;;18.67;16.73;;;23.00;60.50;;;;;;4756306;55;21030;-31
2021/09/30 06:34:13;;;;;;;20.85;17.67;;;23.00;60.40;;;;;;4788979;55;21096;-27
2021/09/30 06:39:14;;;;;;;19.37;17.30;;;23.00;60.40;;;;;;4744324;55;21005;-26
2021/09/30 06:44:15;;;;;;;21.83;18.20;;;23.00;60.40;;;;;;4739342;55;21482;-28
2021/09/30 06:49:16;;;;;;;21.02;18.83;;;23.00;60.40;;;;;;4769516;55;21014;-30
2021/09/30 06:54:17;;;;;;;20.27;17.90;;;23.00;60.30;;;;;;4743059;55;21053;-28
2021/09/30 06:59:23;;;;;;;20.17;18.08;;;23.00;60.30;;;;;;4738439;59;21002;-30
2021/09/30 07:04:24;;;;;;;20.02;17.85;;;23.00;60.30;;;;;;4773755;55;21575;-27
2021/09/30 07:09:25;;;;;;;21.55;18.65;;;23.00;60.20;;;;;;4751410;55;21134;-31
2021/09/30 07:14:29;;;;;;;20.30;17.20;;;23.00;60.20;;;;;;4750503;55;21034;-29
2021/09/30 07:19:33;;;;;;;20.85;18.12;;;23.00;60.30;;;;;;4746921;55;21002;-28
2021/09/30 07:24:36;;;;;;;20.48;18.30;;;23.10;60.40;;;;;;4804074;55;21647;-27
2021/09/30 07:29:38;;;;;;;21.52;19.23;;;23.10;60.50;;;;;;4736988;59;21010;-29
2021/09/30 07:34:39;;;;;;;23.77;19.87;;;23.10;60.60;;;;;;4747675;55;21497;-24
2021/09/30 07:39:40;;;;;;;23.25;20.17;;;23.10;61.30;;;;;;4794293;55;21491;-28
2021/09/30 07:44:41;;;;;;;22.87;20.02;;;23.10;60.80;;;;;;4750077;55;21002;-26
2021/09/30 07:49:42;;;;;;;22.20;19.55;;;23.20;60.80;;;;;;4770081;55;21058;-26
2021/09/30 07:54:43;;;;;;;23.67;20.62;;;23.20;60.90;;;;;;4749499;55;21026;-32
2021/09/30 07:59:44;;;;;;;23.55;20.77;;;23.20;60.90;;;;;;4737586;55;21033;-26
2021/09/30 08:04:45;;;;;;;24.87;20.73;;;23.20;60.90;;;;;;4762923;55;21607;-28
2021/09/30 08:09:45;;;;;;;22.62;20.00;;;23.30;61.10;;;;;;4737831;59;21022;-28
2021/09/30 08:14:46;;;;;;;23.73;21.15;;;23.30;61.00;;;;;;4760791;55;21575;-28
2021/09/30 08:19:48;;;;;;;26.67;22.42;;;23.30;61.10;;;;;;4768077;55;21033;-25
2021/09/30 08:24:48;;;;;;;56.05;42.42;;;23.40;60.70;;;;;;4743890;55;21010;-26
2021/09/30 08:29:49;;;;;;;54.03;39.75;;;23.30;55.80;;;;;;4750006;55;21026;-29
2021/09/30 08:34:50;;;;;;;56.45;42.95;;;23.20;55.20;;;;;;4735624;59;21643;-29
2021/09/30 08:39:51;;;;;;;66.50;42.15;;;23.20;54.60;;;;;;4752915;55;21074;-27
2021/09/30 08:44:54;;;;;;;71.47;51.25;;;23.10;54.70;;;;;;4753237;55;21061;-28
2021/09/30 08:49:55;;;;;;;102.12;81.10;;;23.10;54.80;;;;;;4741538;55;21014;-25
2021/09/30 08:54:56;;;;;;;102.35;77.43;;;23.10;54.80;;;;;;4826611;55;21010;-28
2021/09/30 09:00:09;;;;;;;98.82;73.80;;;23.10;54.80;;;;;;4738482;55;21125;-24
2021/09/30 09:05:10;;;;;;;86.95;63.25;;;23.10;54.80;;;;;;4758212;55;20997;-24
2021/09/30 09:10:11;;;;;;;93.55;71.18;;;23.10;54.70;;;;;;4755411;55;21034;-24
2021/09/30 09:15:12;;;;;;;99.85;75.15;;;23.10;55.20;;;;;;4764876;55;21006;-27
2021/09/30 09:20:13;;;;;;;93.72;73.60;;;23.10;55.40;;;;;;4757417;55;21500;-27
2021/09/30 09:25:16;;;;;;;94.68;71.12;;;23.10;55.50;;;;;;4801807;55;21499;-28
2021/09/30 09:30:30;;;;;;;92.12;71.50;;;23.20;55.80;;;;;;4763667;55;21038;-28
2021/09/30 09:36:19;;;;;;;102.15;76.00;;;23.20;55.90;;;;;;4740437;55;20974;-27
2021/09/30 09:41:35;;;;;;;100.93;77.85;;;23.20;55.90;;;;;;4754018;55;21645;-27
2021/09/30 09:46:40;;;;;;;102.07;78.27;;;23.20;55.90;;;;;;4760663;55;21513;-27
2021/09/30 09:51:47;;;;;;;103.82;77.00;;;23.20;56.00;;;;;;4750403;55;21551;-28
2021/09/30 09:56:50;;;;;;;92.88;74.75;;;23.20;56.10;;;;;;4741969;55;21488;-27
2021/09/30 10:01:51;;;;;;;110.60;82.85;;;23.20;56.20;;;;;;4762830;55;22075;-27
2021/09/30 10:06:52;;;;;;;107.63;78.07;;;23.30;56.20;;;;;;4741637;55;21029;-23
2021/09/30 10:11:53;;;;;;;102.45;77.82;;;23.20;55.60;;;;;;4738224;55;21085;-28
2021/09/30 10:16:54;;;;;;;96.80;73.43;;;23.20;55.60;;;;;;4761661;55;21022;-26
2021/09/30 10:21:55;;;;;;;122.15;92.43;;;23.30;56.00;;;;;;4746313;55;21240;-27
2021/09/30 10:27:00;;;;;;;288.02;223.75;;;23.20;55.90;;;;;;4737007;55;21037;-27
2021/09/30 10:32:02;;;;;;;205.00;163.75;;;23.20;55.60;;;;;;4745133;55;21468;-28
2021/09/30 10:37:29;;;;;;;163.55;128.12;;;23.20;56.60;;;;;;4754864;55;21062;-25
2021/09/30 10:42:53;;;;;;;125.70;97.97;;;23.20;55.20;;;;;;4745641;55;21518;-23
2021/09/30 10:48:07;;;;;;;114.68;86.20;;;23.10;54.50;;;;;;4753140;55;21547;-24
2021/09/30 10:53:08;;;;;;;120.47;87.35;;;23.10;54.30;;;;;;4783645;55;20986;-24
2021/09/30 10:58:23;;;;;;;129.45;92.60;;;23.10;53.90;;;;;;4815623;55;21025;-24
2021/09/30 11:03:26;;;;;;;152.70;108.70;;;23.10;53.80;;;;;;4736976;59;21105;-29
2021/09/30 11:08:33;;;;;;;124.20;93.45;;;23.10;54.00;;;;;;4757358;55;21022;-25
2021/09/30 11:13:49;;;;;;;122.13;87.73;;;23.00;53.60;;;;;;4750408;55;21464;-26
2021/09/30 11:18:58;;;;;;;140.37;98.47;;;23.00;53.30;;;;;;4763458;55;21548;-22
2021/09/30 11:26:04;;;;;;;116.20;82.47;;;23.10;53.40;;;;;;4754565;55;21051;-23
2021/09/30 11:31:37;;;;;;;100.78;75.40;;;23.00;53.30;;;;;;4765806;55;21045;-23
2021/09/30 11:36:38;;;;;;;110.97;81.43;;;23.00;53.50;;;;;;4740943;55;21445;-27
2021/09/30 11:41:42;;;;;;;106.07;75.00;;;23.00;53.80;;;;;;4738916;59;20970;-27
2021/09/30 11:46:49;;;;;;;86.28;65.90;;;23.00;53.50;;;;;;4759177;55;21524;-28
2021/09/30 11:51:55;;;;;;;87.82;66.30;;;23.00;53.60;;;;;;4752074;55;20986;-27
2021/09/30 11:56:56;;;;;;;81.57;62.23;;;23.00;54.10;;;;;;4751848;55;21062;-27
2021/09/30 12:02:04;;;;;;;102.97;68.28;;;23.00;53.90;;;;;;4737007;59;21158;-28
2021/09/30 12:07:15;;;;;;;88.55;63.95;;;23.00;54.70;;;;;;4762602;55;21579;-29
2021/09/30 12:12:17;;;;;;;88.43;63.33;;;23.10;54.50;;;;;;4737378;59;21464;-27
2021/09/30 12:17:20;;;;;;;81.72;62.42;;;23.10;54.40;;;;;;4738355;55;20998;-30
2021/09/30 12:22:33;;;;;;;81.10;60.90;;;23.10;54.50;;;;;;4753944;55;21085;-29
2021/09/30 12:27:37;;;;;;;80.87;61.80;;;23.20;54.50;;;;;;4737715;59;21018;-28
2021/09/30 12:32:44;;;;;;;79.32;60.67;;;23.10;54.50;;;;;;4791243;55;21017;-28
2021/09/30 12:37:50;;;;;;;69.55;53.50;;;23.20;54.60;;;;;;4743948;55;20998;-29
2021/09/30 12:44:13;;;;;;;55.22;42.22;;;23.10;53.60;;;;;;4749024;55;21046;-26
2021/09/30 12:49:14;;;;;;;54.00;40.22;;;23.10;53.00;;;;;;4737616;55;21370;-23
2021/09/30 12:54:27;;;;;;;63.78;49.88;;;23.10;53.00;;;;;;4770661;55;21045;-27
2021/09/30 12:59:28;;;;;;;64.47;52.42;;;23.00;53.30;;;;;;4751400;55;21006;-28
2021/09/30 13:04:29;;;;;;;67.22;54.17;;;23.00;53.70;;;;;;4738229;55;21049;-29
2021/09/30 13:09:41;;;;;;;54.78;43.78;;;23.00;54.00;;;;;;4752151;55;21492;-24
2021/09/30 13:14:55;;;;;;;54.42;38.95;;;22.90;54.00;;;;;;4762071;55;21096;-23
2021/09/30 13:20:01;;;;;;;53.08;39.85;;;22.90;54.40;;;;;;4793551;55;21456;-28
2021/09/30 13:25:20;;;;;;;48.85;40.55;;;22.90;54.60;;;;;;4783428;55;20990;-26
2021/09/30 13:30:30;;;;;;;47.53;38.58;;;22.90;54.70;;;;;;4738705;55;21658;-26
2021/09/30 13:35:34;;;;;;;50.42;41.60;;;22.80;55.00;;;;;;4737713;59;21002;-27
2021/09/30 13:40:38;;;;;;;42.15;33.72;;;22.80;55.10;;;;;;4747449;55;21473;-29
2021/09/30 13:45:38;;;;;;;38.20;29.52;;;22.80;55.10;;;;;;4737597;59;21093;-29
2021/09/30 13:50:39;;;;;;;35.22;27.50;;;22.80;55.40;;;;;;4747001;55;21587;-28
2021/09/30 13:55:40;;;;;;;44.30;34.15;;;22.80;55.40;;;;;;4738348;59;21013;-29
2021/09/30 14:00:41;;;;;;;44.60;34.03;;;22.70;55.40;;;;;;4757090;55;21548;-27
2021/09/30 14:05:42;;;;;;;52.00;40.42;;;22.70;55.80;;;;;;4757189;55;21029;-26
2021/09/30 14:10:42;;;;;;;45.17;37.63;;;22.80;56.50;;;;;;4758435;55;21046;-27
2021/09/30 14:15:43;;;;;;;41.50;32.40;;;22.70;55.80;;;;;;4743326;55;21038;-23
2021/09/30 14:20:45;;;;;;;46.00;35.33;;;22.70;56.20;;;;;;4758211;55;21483;-28
2021/09/30 14:25:46;;;;;;;40.20;32.33;;;22.70;56.10;;;;;;4775178;55;21472;-29
2021/09/30 14:30:47;;;;;;;36.15;31.08;;;22.60;56.20;;;;;;4756240;55;21009;-28
2021/09/30 14:35:52;;;;;;;42.22;34.53;;;22.60;56.40;;;;;;4738379;56;21034;-24
2021/09/30 14:40:53;;;;;;;34.08;27.75;;;22.50;56.40;;;;;;4764267;55;21002;-22
2021/09/30 14:45:54;;;;;;;49.83;39.60;;;22.50;56.70;;;;;;4749515;55;21491;-24
2021/09/30 14:50:55;;;;;;;46.30;34.88;;;22.50;56.70;;;;;;4741187;55;21002;-21
2021/09/30 14:55:56;;;;;;;48.80;39.25;;;22.50;57.00;;;;;;4738204;59;21018;-29
2021/09/30 15:00:56;;;;;;;77.45;51.92;;;22.50;57.00;;;;;;4776581;55;21110;-27
2021/09/30 15:05:57;;;;;;;63.85;41.90;;;22.50;57.10;;;;;;4741689;55;21504;-28
2021/09/30 15:10:58;;;;;;;59.60;43.65;;;22.50;57.90;;;;;;4768176;55;21010;-31
2021/09/30 15:16:01;;;;;;;59.40;42.88;;;22.60;57.50;;;;;;4742010;55;22108;-30
2021/09/30 15:21:21;;;;;;;55.88;41.35;;;22.60;57.40;;;;;;4740577;55;21596;-26
2021/09/30 15:26:23;;;;;;;55.12;41.70;;;22.60;57.30;;;;;;4773953;55;21520;-31
2021/09/30 15:31:26;;;;;;;55.38;41.13;;;22.70;57.40;;;;;;4785115;55;21034;-30
2021/09/30 15:36:28;;;;;;;58.17;39.90;;;22.70;57.20;;;;;;4742549;55;20994;-29
2021/09/30 15:41:33;;;;;;;55.35;38.45;;;22.70;57.20;;;;;;4746857;55;21487;-30
2021/09/30 15:46:34;;;;;;;49.33;38.20;;;22.70;57.20;;;;;;4786931;55;21977;-27
2021/09/30 15:51:35;;;;;;;52.95;38.85;;;22.70;57.10;;;;;;4747158;55;21110;-27
2021/09/30 15:56:36;;;;;;;52.03;38.97;;;22.70;57.10;;;;;;4740873;55;21061;-25
2021/09/30 16:01:39;;;;;;;54.20;39.47;;;22.70;57.10;;;;;;4807466;55;21038;-23
2021/09/30 16:06:41;;;;;;;49.75;37.83;;;22.70;57.10;;;;;;4769186;55;21018;-27
2021/09/30 16:11:42;;;;;;;50.95;38.47;;;22.70;57.10;;;;;;4784188;55;21654;-28
2021/09/30 16:16:43;;;;;;;49.53;37.63;;;22.70;57.10;;;;;;4752029;55;21005;-30
2021/09/30 16:21:43;;;;;;;47.70;36.75;;;22.70;57.00;;;;;;4758240;55;20998;-26
2021/09/30 16:26:45;;;;;;;51.35;36.13;;;22.80;57.10;;;;;;4784507;55;21033;-29
2021/09/30 16:31:47;;;;;;;48.33;36.47;;;22.70;57.00;;;;;;4782728;55;21010;-24
2021/09/30 16:36:48;;;;;;;48.15;36.75;;;22.80;57.10;;;;;;4737621;56;20990;-29
2021/09/30 16:41:48;;;;;;;46.72;35.47;;;22.80;57.10;;;;;;4761189;55;21109;-29
2021/09/30 16:46:50;;;;;;;47.95;36.65;;;22.80;57.10;;;;;;4761245;55;21102;-25
2021/09/30 16:51:53;;;;;;;48.35;35.15;;;22.80;57.10;;;;;;4739887;55;21651;-27
2021/09/30 16:56:54;;;;;;;48.72;36.60;;;22.80;57.10;;;;;;4758678;55;21054;-27
2021/09/30 17:01:58;;;;;;;43.40;34.50;;;22.80;57.10;;;;;;4780271;55;21600;-28
2021/09/30 17:06:58;;;;;;;45.15;36.03;;;22.80;57.20;;;;;;4749961;55;21501;-30
2021/09/30 17:11:59;;;;;;;48.92;35.72;;;22.80;57.20;;;;;;4763375;55;21002;-29
2021/09/30 17:17:00;;;;;;;46.72;36.67;;;22.80;57.10;;;;;;4737403;59;21030;-26
2021/09/30 17:22:02;;;;;;;42.95;34.70;;;22.80;57.20;;;;;;4742233;55;21089;-29
2021/09/30 17:27:04;;;;;;;46.95;35.72;;;22.80;57.20;;;;;;4778976;55;21468;-32
2021/09/30 17:32:06;;;;;;;44.45;34.67;;;22.80;57.20;;;;;;4737609;59;21037;-28
2021/09/30 17:37:07;;;;;;;47.88;36.20;;;22.80;57.20;;;;;;4754963;55;21017;-32
2021/09/30 17:42:08;;;;;;;46.15;35.25;;;22.80;57.20;;;;;;4747998;55;21500;-29
2021/09/30 17:47:08;;;;;;;45.28;36.08;;;22.80;57.20;;;;;;4748741;55;21021;-22
2021/09/30 17:52:09;;;;;;;44.13;34.67;;;22.80;57.20;;;;;;4766598;55;21150;-25
2021/09/30 17:57:10;;;;;;;42.67;34.13;;;22.80;57.20;;;;;;4748838;55;20982;-29
2021/09/30 18:02:11;;;;;;;47.03;34.88;;;22.80;57.20;;;;;;4759603;55;21097;-22
2021/09/30 18:07:13;;;;;;;44.08;34.08;;;22.80;57.20;;;;;;4750462;55;21492;-28
2021/09/30 18:12:14;;;;;;;49.75;34.92;;;22.80;57.20;;;;;;4738863;59;21002;-29
2021/09/30 18:17:15;;;;;;;38.30;32.33;;;22.80;57.30;;;;;;4742087;55;21038;-28
2021/09/30 18:22:16;;;;;;;43.28;31.73;;;22.80;57.30;;;;;;4758833;55;21001;-29
2021/09/30 18:27:17;;;;;;;40.30;32.17;;;22.80;57.30;;;;;;4743819;55;21512;-30
2021/09/30 18:32:19;;;;;;;42.72;33.47;;;22.80;57.30;;;;;;4749051;55;21485;-29
2021/09/30 18:37:20;;;;;;;44.13;33.60;;;22.80;57.40;;;;;;4773947;55;21009;-29
2021/09/30 18:42:24;;;;;;;42.70;32.97;;;22.80;57.40;;;;;;4738875;59;21030;-28
2021/09/30 18:47:25;;;;;;;42.50;33.65;;;22.80;57.40;;;;;;4742586;55;21630;-30
2021/09/30 18:52:26;;;;;;;41.53;32.78;;;22.80;57.50;;;;;;4755751;55;21084;-29
2021/09/30 18:57:27;;;;;;;42.70;32.92;;;22.80;57.40;;;;;;4744481;55;21066;-25
2021/09/30 19:02:27;;;;;;;39.35;31.55;;;22.80;57.40;;;;;;4744515;55;21053;-29
2021/09/30 19:07:28;;;;;;;39.47;32.45;;;22.80;57.50;;;;;;4745756;55;21093;-29
2021/09/30 19:12:29;;;;;;;38.42;32.67;;;22.80;57.50;;;;;;4745765;55;21504;-29
2021/09/30 19:17:30;;;;;;;40.28;32.08;;;22.80;57.50;;;;;;4855234;55;21999;-29
2021/09/30 19:22:31;;;;;;;40.63;32.55;;;22.80;57.50;;;;;;4746486;55;21025;-23
2021/09/30 19:27:31;;;;;;;38.28;31.70;;;22.80;57.50;;;;;;4764560;55;21568;-30
2021/09/30 19:32:33;;;;;;;41.50;32.45;;;22.70;57.50;;;;;;4769095;55;21006;-29
2021/09/30 19:37:34;;;;;;;40.22;31.95;;;22.80;57.50;;;;;;4739363;55;21006;-27
2021/09/30 19:42:36;;;;;;;37.85;31.45;;;22.70;57.50;;;;;;4764209;55;21047;-29
2021/09/30 19:47:37;;;;;;;36.47;30.83;;;22.70;57.50;;;;;;4758541;55;21368;-27
2021/09/30 19:52:38;;;;;;;35.17;30.60;;;22.70;57.50;;;;;;4754114;55;21492;-27
2021/09/30 19:57:40;;;;;;;39.13;31.55;;;22.70;57.50;;;;;;4787168;55;21050;-30
2021/09/30 20:02:42;;;;;;;34.17;30.12;;;22.70;57.50;;;;;;4744590;55;21081;-28
2021/09/30 20:07:45;;;;;;;36.08;29.70;;;22.70;57.60;;;;;;4760328;55;21069;-28
2021/09/30 20:12:46;;;;;;;34.58;30.02;;;22.70;57.50;;;;;;4751468;55;21556;-27
2021/09/30 20:17:46;;;;;;;36.05;30.55;;;22.70;57.60;;;;;;4757658;55;21041;-30
2021/09/30 20:22:47;;;;;;;37.30;31.37;;;22.70;57.60;;;;;;4838378;55;21006;-26
2021/09/30 20:27:48;;;;;;;35.20;29.87;;;22.70;57.60;;;;;;4778671;55;21034;-26
2021/09/30 20:32:49;;;;;;;35.05;30.15;;;22.70;57.60;;;;;;4803995;55;21571;-27
2021/09/30 20:37:49;;;;;;;35.00;29.58;;;22.70;57.60;;;;;;4738413;59;21022;-27
2021/09/30 20:42:50;;;;;;;32.35;27.67;;;22.70;57.60;;;;;;4743979;55;21018;-27
2021/09/30 20:47:51;;;;;;;32.60;28.08;;;22.70;57.60;;;;;;4768866;55;21030;-23
2021/09/30 20:52:53;;;;;;;33.13;27.92;;;22.70;57.60;;;;;;4745736;55;21481;-33
2021/09/30 20:57:58;;;;;;;35.13;28.87;;;22.70;57.60;;;;;;4743444;55;21485;-21
2021/09/30 21:02:59;;;;;;;31.77;26.92;;;22.70;57.60;;;;;;4745565;55;21165;-30
2021/09/30 21:08:03;;;;;;;35.97;28.55;;;22.70;57.60;;;;;;4764698;55;21089;-28
2021/09/30 21:13:04;;;;;;;33.85;27.73;;;22.70;57.60;;;;;;4758985;55;21069;-24
2021/09/30 21:18:05;;;;;;;30.95;27.62;;;22.70;57.70;;;;;;4738236;55;21006;-28
2021/09/30 21:23:07;;;;;;;33.60;27.35;;;22.70;57.70;;;;;;4784010;55;20973;-30
2021/09/30 21:28:07;;;;;;;31.48;27.55;;;22.70;57.70;;;;;;4758389;55;21080;-29
2021/09/30 21:33:08;;;;;;;31.30;26.42;;;22.70;57.70;;;;;;4757431;55;21564;-29
2021/09/30 21:38:09;;;;;;;31.15;25.85;;;22.70;57.80;;;;;;4747245;55;21065;-28
2021/09/30 21:43:10;;;;;;;31.27;26.58;;;22.70;57.70;;;;;;4760499;55;21105;-25
2021/09/30 21:48:11;;;;;;;31.20;26.50;;;22.70;57.70;;;;;;4753621;55;21507;-30
2021/09/30 21:53:12;;;;;;;31.27;27.17;;;22.70;57.70;;;;;;4788962;55;21528;-30
2021/09/30 21:58:13;;;;;;;31.80;26.25;;;22.70;57.70;;;;;;4755185;55;21097;-30
2021/09/30 22:03:16;;;;;;;28.40;24.60;;;22.70;57.70;;;;;;4755595;55;21403;-29
2021/09/30 22:08:19;;;;;;;30.55;26.48;;;22.70;58.20;;;;;;4768425;55;21584;-26
2021/09/30 22:13:20;;;;;;;28.23;25.08;;;22.70;57.70;;;;;;4750559;55;21090;-29
2021/09/30 22:18:21;;;;;;;28.00;24.98;;;22.70;57.80;;;;;;4738560;59;20994;-30
2021/09/30 22:23:22;;;;;;;29.42;25.98;;;22.70;57.80;;;;;;4743563;55;21010;-28
2021/09/30 22:28:23;;;;;;;29.10;25.55;;;22.70;57.80;;;;;;4757907;55;21556;-29
2021/09/30 22:33:27;;;;;;;27.58;24.58;;;22.70;57.80;;;;;;4749371;55;20997;-27
2021/09/30 22:38:28;;;;;;;27.90;24.25;;;22.70;57.80;;;;;;4738498;59;21006;-32
2021/09/30 22:43:29;;;;;;;26.83;23.87;;;22.70;57.80;;;;;;4793867;55;21018;-28
2021/09/30 22:48:30;;;;;;;28.02;23.98;;;22.70;57.80;;;;;;4858032;55;21476;-27
2021/09/30 22:53:32;;;;;;;28.48;24.80;;;22.70;57.80;;;;;;4760551;55;21005;-26
2021/09/30 22:58:32;;;;;;;27.70;24.27;;;22.70;57.80;;;;;;4776963;55;21006;-28
2021/09/30 23:03:33;;;;;;;28.40;24.35;;;22.70;57.90;;;;;;4748494;55;21018;-25
2021/09/30 23:08:35;;;;;;;26.48;23.67;;;22.70;57.80;;;;;;4755699;55;21022;-30
2021/09/30 23:13:36;;;;;;;28.45;24.70;;;22.70;57.90;;;;;;4746907;55;21516;-30
2021/09/30 23:18:37;;;;;;;26.27;23.35;;;22.70;57.90;;;;;;4739824;55;21014;-28
2021/09/30 23:23:38;;;;;;;25.75;22.70;;;22.70;57.90;;;;;;4771653;55;21083;-28
2021/09/30 23:28:39;;;;;;;26.17;23.35;;;22.70;57.90;;;;;;4752316;55;21009;-29
2021/09/30 23:33:40;;;;;;;24.40;21.77;;;22.70;57.90;;;;;;4759527;55;21093;-29
2021/09/30 23:38:40;;;;;;;25.40;22.70;;;22.70;57.90;;;;;;4746011;55;21009;-26
2021/09/30 23:43:41;;;;;;;26.98;23.08;;;22.70;57.90;;;;;;4760999;55;21002;-28
2021/09/30 23:48:42;;;;;;;26.77;23.62;;;22.70;57.90;;;;;;4748777;55;21468;-26
2021/09/30 23:53:43;;;;;;;24.67;22.02;;;22.70;57.90;;;;;;4739000;59;21073;-32
2021/09/30 23:58:44;;;;;;;24.67;21.42;;;22.70;57.90;;;;;;4738548;59;20998;-28
